Time;durP1;ratioP1;P1;durP2;ratioP2;P2;SDS_P1;SDS_P2;PMS_P1;PMS_P2;Temp;Humidity;BMP_temperature;BMP_pressure;BME280_temperature;BME280_humidity;BME280_pressure;Samples;Min_cycle;Max_cycle;Signal;HPM_P1;HPM_P2
2021/07/14 00:01:55;;;;;;;36.60;25.33;;;;;;;;;;5051868;28;20403;-79
2021/07/14 00:04:21;;;;;;;38.63;25.37;;;;;;;;;;5051383;28;20444;-78
2021/07/14 00:06:47;;;;;;;37.23;23.37;;;;;;;;;;5053070;28;20517;-78
2021/07/14 00:09:13;;;;;;;37.70;24.70;;;;;;;;;;5053053;28;20470;-77
2021/07/14 00:12:14;;;;;;;31.57;22.60;;;;;;;;;;5051888;28;20466;-78
2021/07/14 00:14:57;;;;;;;37.00;21.40;;;;;;;;;;5050344;28;20436;-78
2021/07/14 00:22:36;;;;;;;26.13;16.53;;;;;;;;;;5053165;28;20428;-78
2021/07/14 00:25:04;;;;;;;19.83;17.67;;;;;;;;;;5052703;28;20445;-78
2021/07/14 00:27:31;;;;;;;27.13;17.10;;;;;;;;;;5051482;28;20506;-79
2021/07/14 00:29:59;;;;;;;23.87;17.37;;;;;;;;;;5052947;28;20922;-78
2021/07/14 00:32:26;;;;;;;35.77;16.10;;;;;;;;;;5051393;28;20906;-79
2021/07/14 00:34:52;;;;;;;30.87;16.33;;;;;;;;;;5052385;28;20434;-79
2021/07/14 00:37:18;;;;;;;22.40;15.03;;;;;;;;;;5052751;28;20426;-78
2021/07/14 00:39:45;;;;;;;29.70;16.73;;;;;;;;;;5052672;28;20420;-78
2021/07/14 00:42:12;;;;;;;23.90;16.23;;;;;;;;;;5051646;28;20913;-78
2021/07/14 00:44:38;;;;;;;23.97;16.90;;;;;;;;;;5052175;28;20788;-77
2021/07/14 00:47:05;;;;;;;24.63;16.67;;;;;;;;;;5052657;28;20465;-78
2021/07/14 00:49:32;;;;;;;20.43;16.20;;;;;;;;;;5052816;28;20411;-77
2021/07/14 00:51:58;;;;;;;20.03;15.33;;;;;;;;;;5052797;28;20830;-78
2021/07/14 00:54:25;;;;;;;23.13;15.90;;;;;;;;;;5051013;28;20440;-78
2021/07/14 00:56:51;;;;;;;19.63;16.30;;;;;;;;;;5052645;28;20847;-78
2021/07/14 00:59:17;;;;;;;22.73;15.83;;;;;;;;;;5052580;28;20436;-78
2021/07/14 01:01:47;;;;;;;16.80;15.00;;;;;;;;;;5054976;28;20860;-78
2021/07/14 01:04:13;;;;;;;28.93;13.70;;;;;;;;;;5055970;28;20423;-78
2021/07/14 01:06:47;;;;;;;15.03;11.83;;;;;;;;;;5056144;28;20419;-79
2021/07/14 01:09:14;;;;;;;16.50;12.57;;;;;;;;;;5056643;28;20496;-78
2021/07/14 01:11:41;;;;;;;13.37;11.93;;;;;;;;;;5056421;28;20410;-77
2021/07/14 01:14:25;;;;;;;14.40;10.73;;;;;;;;;;5055738;28;20760;-77
2021/07/14 01:16:57;;;;;;;22.37;12.47;;;;;;;;;;5056171;28;20374;-78
2021/07/14 01:19:26;;;;;;;20.27;12.97;;;;;;;;;;5056223;28;20389;-77
2021/07/14 01:21:54;;;;;;;19.20;12.50;;;;;;;;;;5056099;28;20397;-78
2021/07/14 01:24:39;;;;;;;15.63;10.83;;;;;;;;;;5055513;28;20423;-78
2021/07/14 01:27:16;;;;;;;18.20;12.00;;;;;;;;;;5055689;28;20400;-78
2021/07/14 01:29:44;;;;;;;15.60;11.60;;;;;;;;;;5055830;28;20962;-78
2021/07/14 01:32:10;;;;;;;15.07;8.80;;;;;;;;;;5054776;28;20419;-77
2021/07/14 01:34:38;;;;;;;12.23;9.37;;;;;;;;;;5054179;28;20406;-80
2021/07/14 01:37:06;;;;;;;17.63;10.37;;;;;;;;;;5055545;28;20404;-79
2021/07/14 01:39:33;;;;;;;15.90;10.37;;;;;;;;;;5055617;28;20411;-80
2021/07/14 01:42:00;;;;;;;15.60;8.47;;;;;;;;;;5055711;28;20852;-78
2021/07/14 01:44:27;;;;;;;13.13;9.10;;;;;;;;;;5055143;28;20456;-77
2021/07/14 01:46:57;;;;;;;12.60;9.00;;;;;;;;;;5054254;28;20405;-77
2021/07/14 01:49:24;;;;;;;14.33;10.20;;;;;;;;;;5055370;28;20404;-77
2021/07/14 01:51:56;;;;;;;15.87;8.90;;;;;;;;;;5055413;28;20929;-78
2021/07/14 01:54:24;;;;;;;17.80;9.37;;;;;;;;;;5053925;28;20411;-78
2021/07/14 01:56:50;;;;;;;17.30;9.37;;;;;;;;;;5054077;28;20420;-77
2021/07/14 01:59:18;;;;;;;15.67;10.40;;;;;;;;;;5053926;28;20997;-77
2021/07/14 02:01:44;;;;;;;19.97;9.40;;;;;;;;;;5055163;28;20405;-78
2021/07/14 02:04:30;;;;;;;20.30;10.97;;;;;;;;;;5054753;28;20515;-77
2021/07/14 02:06:56;;;;;;;14.50;9.20;;;;;;;;;;5055193;28;20436;-77
2021/07/14 02:09:22;;;;;;;10.63;7.73;;;;;;;;;;5054993;28;20412;-77
2021/07/14 02:11:50;;;;;;;12.10;8.60;;;;;;;;;;5054900;28;20975;-77
2021/07/14 02:14:19;;;;;;;12.10;7.13;;;;;;;;;;5054183;28;20403;-78
2021/07/14 02:16:46;;;;;;;7.63;6.97;;;;;;;;;;5055146;28;20408;-78
2021/07/14 02:19:14;;;;;;;9.43;7.30;;;;;;;;;;5054858;28;20388;-78
2021/07/14 02:21:40;;;;;;;8.13;6.43;;;;;;;;;;5055028;28;20390;-79
2021/07/14 02:24:06;;;;;;;9.50;6.20;;;;;;;;;;5053374;28;20792;-77
2021/07/14 02:26:32;;;;;;;7.27;6.60;;;;;;;;;;5054934;28;20844;-78
2021/07/14 02:28:59;;;;;;;9.97;6.40;;;;;;;;;;5054725;28;20504;-78
2021/07/14 02:31:25;;;;;;;10.03;7.20;;;;;;;;;;5054807;28;20408;-78
2021/07/14 02:33:51;;;;;;;7.60;6.10;;;;;;;;;;5053036;28;20449;-78
2021/07/14 02:36:18;;;;;;;8.63;6.60;;;;;;;;;;5054593;28;20395;-77
2021/07/14 02:38:49;;;;;;;22.27;7.43;;;;;;;;;;5054470;28;20481;-78
2021/07/14 02:41:23;;;;;;;13.67;7.13;;;;;;;;;;5054498;28;20766;-78
2021/07/14 02:43:52;;;;;;;9.93;6.57;;;;;;;;;;5054289;28;20485;-77
2021/07/14 02:46:26;;;;;;;7.90;7.20;;;;;;;;;;5053094;28;20428;-79
2021/07/14 02:48:54;;;;;;;9.13;7.13;;;;;;;;;;5054563;28;20513;-77
2021/07/14 02:51:20;;;;;;;9.50;6.93;;;;;;;;;;5054274;28;20383;-77
2021/07/14 02:53:48;;;;;;;9.40;7.77;;;;;;;;;;5053905;28;20487;-78
2021/07/14 02:56:18;;;;;;;11.63;7.40;;;;;;;;;;5054396;28;20404;-78
2021/07/14 02:58:53;;;;;;;9.27;7.00;;;;;;;;;;5053051;28;20416;-78
2021/07/14 03:01:21;;;;;;;11.00;6.50;;;;;;;;;;5052924;28;20433;-77
2021/07/14 03:03:51;;;;;;;7.03;6.37;;;;;;;;;;5052343;28;20406;-77
2021/07/14 03:06:17;;;;;;;8.03;6.33;;;;;;;;;;5054032;28;20435;-77
2021/07/14 03:08:48;;;;;;;17.20;6.40;;;;;;;;;;5053920;28;20533;-77
2021/07/14 03:11:15;;;;;;;12.27;6.80;;;;;;;;;;5052984;28;20443;-77
2021/07/14 03:13:43;;;;;;;7.17;5.90;;;;;;;;;;5053595;28;20400;-77
2021/07/14 03:16:09;;;;;;;13.57;7.33;;;;;;;;;;5054063;28;20454;-77
2021/07/14 03:18:36;;;;;;;6.33;5.80;;;;;;;;;;5053988;28;20908;-78
2021/07/14 03:21:02;;;;;;;14.57;6.10;;;;;;;;;;5053932;28;20387;-77
2021/07/14 03:23:29;;;;;;;13.73;5.33;;;;;;;;;;5053355;28;20577;-77
2021/07/14 03:25:56;;;;;;;9.47;5.60;;;;;;;;;;5053471;28;20420;-77
2021/07/14 03:28:25;;;;;;;8.57;6.40;;;;;;;;;;5053548;28;20427;-78
2021/07/14 03:30:51;;;;;;;8.00;6.07;;;;;;;;;;5053667;28;20901;-77
2021/07/14 03:33:17;;;;;;;8.43;5.57;;;;;;;;;;5051994;28;20388;-77
2021/07/14 03:35:44;;;;;;;12.37;6.70;;;;;;;;;;5053387;28;20423;-77
2021/07/14 03:38:11;;;;;;;6.00;5.40;;;;;;;;;;5053384;28;20420;-78
2021/07/14 03:40:39;;;;;;;10.67;5.87;;;;;;;;;;5053369;28;20408;-78
2021/07/14 03:43:06;;;;;;;7.50;5.50;;;;;;;;;;5051844;28;20504;-77
2021/07/14 03:45:32;;;;;;;10.70;5.10;;;;;;;;;;5053264;28;20446;-78
2021/07/14 03:47:59;;;;;;;11.90;6.03;;;;;;;;;;5053147;28;20951;-77
2021/07/14 03:50:26;;;;;;;12.33;5.50;;;;;;;;;;5053276;28;20825;-77
2021/07/14 03:52:53;;;;;;;7.37;6.57;;;;;;;;;;5052858;28;20389;-78
2021/07/14 03:55:19;;;;;;;7.00;6.30;;;;;;;;;;5053102;28;20424;-77
2021/07/14 03:57:45;;;;;;;11.50;6.30;;;;;;;;;;5053146;28;20867;-78
2021/07/14 04:00:12;;;;;;;7.40;6.70;;;;;;;;;;5053239;28;20412;-77
2021/07/14 04:02:39;;;;;;;12.10;7.67;;;;;;;;;;5052011;28;20427;-77
2021/07/14 04:05:06;;;;;;;11.67;6.90;;;;;;;;;;5052941;28;20454;-77
2021/07/14 04:07:33;;;;;;;8.87;7.97;;;;;;;;;;5053252;28;20539;-77
2021/07/14 04:10:01;;;;;;;9.57;6.27;;;;;;;;;;5053199;28;20378;-77
2021/07/14 04:12:27;;;;;;;13.20;6.50;;;;;;;;;;5051968;28;20424;-77
2021/07/14 04:14:53;;;;;;;7.70;6.90;;;;;;;;;;5052636;28;20403;-77
2021/07/14 04:17:20;;;;;;;9.03;7.10;;;;;;;;;;5051658;28;20883;-77
2021/07/14 04:19:46;;;;;;;8.53;6.93;;;;;;;;;;5052904;28;20394;-78
2021/07/14 04:22:12;;;;;;;8.73;7.83;;;;;;;;;;5051741;28;20448;-77
2021/07/14 04:24:39;;;;;;;8.50;7.43;;;;;;;;;;5051293;28;20443;-77
2021/07/14 04:27:05;;;;;;;9.40;7.17;;;;;;;;;;5053072;28;20378;-77
2021/07/14 04:29:31;;;;;;;18.70;8.00;;;;;;;;;;5053002;28;20459;-78
2021/07/14 04:31:58;;;;;;;10.27;7.33;;;;;;;;;;5052947;28;20504;-79
2021/07/14 04:34:23;;;;;;;11.60;7.60;;;;;;;;;;5052306;28;20439;-77
2021/07/14 04:36:50;;;;;;;10.40;7.20;;;;;;;;;;5055526;28;20408;-77
2021/07/14 04:39:16;;;;;;;10.03;6.33;;;;;;;;;;5056836;28;20784;-77
2021/07/14 04:41:42;;;;;;;7.50;6.80;;;;;;;;;;5056721;28;20408;-77
2021/07/14 04:44:10;;;;;;;8.00;7.20;;;;;;;;;;5056176;28;20432;-78
2021/07/14 04:46:36;;;;;;;16.43;7.10;;;;;;;;;;5056664;28;20387;-77
2021/07/14 04:49:03;;;;;;;8.27;7.57;;;;;;;;;;5056736;28;20463;-77
2021/07/14 04:51:29;;;;;;;11.90;7.00;;;;;;;;;;5056511;28;20386;-77
2021/07/14 04:53:55;;;;;;;9.10;6.80;;;;;;;;;;5056188;28;20383;-77
2021/07/14 04:56:21;;;;;;;7.67;6.87;;;;;;;;;;5055469;28;20796;-77
2021/07/14 04:58:48;;;;;;;11.27;7.53;;;;;;;;;;5056677;28;20443;-77
2021/07/14 05:01:16;;;;;;;8.90;7.40;;;;;;;;;;5056581;28;20419;-77
2021/07/14 05:03:46;;;;;;;9.90;8.50;;;;;;;;;;5056203;28;20821;-77
2021/07/14 05:06:12;;;;;;;11.13;9.40;;;;;;;;;;5055170;28;20451;-77
2021/07/14 05:08:38;;;;;;;17.20;8.00;;;;;;;;;;5056099;28;20433;-77
2021/07/14 05:11:04;;;;;;;13.20;8.00;;;;;;;;;;5056306;28;20469;-78
2021/07/14 05:13:30;;;;;;;10.27;7.80;;;;;;;;;;5055772;28;20387;-78
2021/07/14 05:15:56;;;;;;;11.70;7.13;;;;;;;;;;5056022;28;20465;-78
2021/07/14 05:18:22;;;;;;;11.13;7.80;;;;;;;;;;5056316;28;20416;-78
2021/07/14 05:20:48;;;;;;;11.97;7.53;;;;;;;;;;5056249;28;20420;-77
2021/07/14 05:23:14;;;;;;;11.03;7.30;;;;;;;;;;5056054;28;20419;-77
2021/07/14 05:25:40;;;;;;;8.13;7.33;;;;;;;;;;5054631;28;20964;-77
2021/07/14 05:28:06;;;;;;;13.13;8.33;;;;;;;;;;5055796;28;20497;-77
2021/07/14 05:30:32;;;;;;;9.30;8.30;;;;;;;;;;5055851;28;20403;-79
2021/07/14 05:32:59;;;;;;;11.90;8.00;;;;;;;;;;5054486;28;20769;-77
2021/07/14 05:35:25;;;;;;;10.67;8.50;;;;;;;;;;5055660;28;20507;-77
2021/07/14 05:37:51;;;;;;;16.90;9.47;;;;;;;;;;5054289;28;20424;-77
2021/07/14 05:40:17;;;;;;;10.23;8.50;;;;;;;;;;5055611;28;20430;-78
2021/07/14 05:42:43;;;;;;;10.60;8.20;;;;;;;;;;5055487;28;20706;-78
2021/07/14 05:45:09;;;;;;;18.00;8.40;;;;;;;;;;5055520;28;20470;-77
2021/07/14 05:47:35;;;;;;;9.27;8.47;;;;;;;;;;5054305;28;20824;-77
2021/07/14 05:50:04;;;;;;;14.43;10.07;;;;;;;;;;5055495;28;20404;-78
2021/07/14 05:52:30;;;;;;;10.90;9.03;;;;;;;;;;5038442;28;20399;-79
2021/07/14 05:54:56;;;;;;;12.63;8.73;;;;;;;;;;5054896;28;20407;-77
2021/07/14 05:57:22;;;;;;;10.80;9.70;;;;;;;;;;5055373;28;20394;-78
2021/07/14 05:59:48;;;;;;;11.90;9.43;;;;;;;;;;5054183;28;20427;-78
2021/07/14 06:02:14;;;;;;;13.27;9.97;;;;;;;;;;5054175;28;20435;-78
2021/07/14 06:04:40;;;;;;;21.20;10.27;;;;;;;;;;5054663;28;20762;-78
2021/07/14 06:07:07;;;;;;;14.40;10.20;;;;;;;;;;5053980;28;20517;-78
2021/07/14 06:09:33;;;;;;;14.43;10.77;;;;;;;;;;5055089;28;20420;-78
2021/07/14 06:11:59;;;;;;;15.13;10.87;;;;;;;;;;5055141;28;20408;-78
2021/07/14 06:14:25;;;;;;;15.77;10.40;;;;;;;;;;5053334;28;20870;-78
2021/07/14 06:16:52;;;;;;;22.57;14.20;;;;;;;;;;5053953;28;20416;-78
2021/07/14 06:19:18;;;;;;;21.17;13.67;;;;;;;;;;5055010;28;20812;-81
2021/07/14 06:21:45;;;;;;;16.60;11.80;;;;;;;;;;5054906;28;20412;-79
2021/07/14 06:24:11;;;;;;;18.17;13.90;;;;;;;;;;5053244;28;20447;-79
2021/07/14 06:26:37;;;;;;;21.07;14.60;;;;;;;;;;5054758;28;20413;-79
2021/07/14 06:29:03;;;;;;;14.27;12.77;;;;;;;;;;5053253;28;20797;-79
2021/07/14 06:31:29;;;;;;;19.40;13.00;;;;;;;;;;5054677;28;20447;-80
2021/07/14 06:33:55;;;;;;;20.60;13.07;;;;;;;;;;5054310;28;20387;-80
2021/07/14 06:39:25;;;;;;;15.70;12.50;;;;;;;;;;5054563;28;20378;-79
2021/07/14 06:41:51;;;;;;;13.50;11.50;;;;;;;;;;5053353;28;20883;-79
2021/07/14 06:44:17;;;;;;;17.07;11.93;;;;;;;;;;5054128;28;20439;-78
2021/07/14 06:46:43;;;;;;;18.47;12.70;;;;;;;;;;5054408;28;20447;-78
2021/07/14 06:49:09;;;;;;;23.23;12.80;;;;;;;;;;5054260;28;20443;-78
2021/07/14 06:51:35;;;;;;;16.40;12.30;;;;;;;;;;5054189;28;20394;-79
2021/07/14 06:54:01;;;;;;;13.50;11.20;;;;;;;;;;5053928;28;20474;-78
2021/07/14 06:56:27;;;;;;;15.33;12.37;;;;;;;;;;5053216;28;20403;-78
2021/07/14 06:58:53;;;;;;;14.20;11.43;;;;;;;;;;5054241;28;20731;-78
2021/07/14 07:01:20;;;;;;;15.47;12.57;;;;;;;;;;5052967;28;20444;-78
2021/07/14 07:03:46;;;;;;;15.97;11.50;;;;;;;;;;5052388;28;20391;-78
2021/07/14 07:06:12;;;;;;;20.10;12.23;;;;;;;;;;5054285;28;20418;-78
2021/07/14 07:08:44;;;;;;;14.63;11.27;;;;;;;;;;5054014;28;20470;-78
2021/07/14 07:11:10;;;;;;;13.33;11.03;;;;;;;;;;5054147;28;20404;-79
2021/07/14 07:13:36;;;;;;;15.83;12.73;;;;;;;;;;5053496;28;20893;-78
2021/07/14 07:16:03;;;;;;;15.53;11.00;;;;;;;;;;5053776;28;20432;-78
2021/07/14 07:18:29;;;;;;;17.47;11.00;;;;;;;;;;5053626;28;20423;-79
2021/07/14 07:20:56;;;;;;;12.83;10.90;;;;;;;;;;5052715;28;20382;-79
2021/07/14 07:23:22;;;;;;;18.43;12.80;;;;;;;;;;5053341;28;20443;-79
2021/07/14 07:25:48;;;;;;;22.57;14.43;;;;;;;;;;5053811;28;20435;-79
2021/07/14 07:28:17;;;;;;;20.13;15.30;;;;;;;;;;5052503;28;20479;-80
2021/07/14 07:30:44;;;;;;;17.47;14.07;;;;;;;;;;5052463;28;20921;-79
2021/07/14 07:33:10;;;;;;;16.30;14.20;;;;;;;;;;5053300;28;20477;-78
2021/07/14 07:35:54;;;;;;;18.37;13.97;;;;;;;;;;5052453;28;20493;-79
2021/07/14 07:38:20;;;;;;;19.10;15.33;;;;;;;;;;5052335;28;20395;-79
2021/07/14 07:43:51;;;;;;;26.70;18.47;;;;;;;;;;5029927;28;20427;-80
2021/07/14 07:46:17;;;;;;;29.07;20.60;;;;;;;;;;5053408;28;20781;-80
2021/07/14 07:48:43;;;;;;;26.03;20.17;;;;;;;;;;5053249;28;20465;-80
2021/07/14 07:51:10;;;;;;;27.27;18.37;;;;;;;;;;5052006;28;20435;-80
2021/07/14 07:53:36;;;;;;;29.20;18.77;;;;;;;;;;5051608;28;20446;-80
2021/07/14 07:56:03;;;;;;;28.70;18.97;;;;;;;;;;5053013;28;20920;-80
2021/07/14 07:58:29;;;;;;;25.77;17.40;;;;;;;;;;5053286;28;20832;-80
2021/07/14 08:00:55;;;;;;;24.03;16.20;;;;;;;;;;5051997;28;20485;-81
2021/07/14 08:03:21;;;;;;;17.63;14.33;;;;;;;;;;5052940;28;20823;-82
2021/07/14 08:05:47;;;;;;;23.53;14.00;;;;;;;;;;5053120;28;20426;-80
2021/07/14 08:08:13;;;;;;;21.77;14.00;;;;;;;;;;5053200;28;20448;-80
2021/07/14 08:10:40;;;;;;;19.17;14.87;;;;;;;;;;5051248;28;20408;-80
2021/07/14 08:13:06;;;;;;;20.37;13.10;;;;;;;;;;5051530;28;20446;-80
2021/07/14 08:15:33;;;;;;;21.87;14.37;;;;;;;;;;5052031;28;20435;-80
2021/07/14 08:17:59;;;;;;;18.33;13.97;;;;;;;;;;5052927;28;20474;-81
2021/07/14 08:20:25;;;;;;;21.77;14.87;;;;;;;;;;5051961;28;20611;-80
2021/07/14 08:22:51;;;;;;;25.77;13.93;;;;;;;;;;5051386;28;20420;-80
2021/07/14 08:25:18;;;;;;;21.63;15.60;;;;;;;;;;5052968;28;20448;-79
2021/07/14 08:27:44;;;;;;;27.33;16.87;;;;;;;;;;5052853;28;20972;-78
2021/07/14 08:30:11;;;;;;;25.03;18.60;;;;;;;;;;5052861;28;20904;-80
2021/07/14 08:32:37;;;;;;;29.80;21.27;;;;;;;;;;5052765;28;20427;-78
2021/07/14 08:35:04;;;;;;;28.77;20.90;;;;;;;;;;5052358;28;20451;-78
2021/07/14 08:37:31;;;;;;;26.77;19.10;;;;;;;;;;5052725;28;20438;-78
2021/07/14 08:39:57;;;;;;;27.77;19.33;;;;;;;;;;5052698;28;20486;-77
2021/07/14 08:42:24;;;;;;;25.90;19.23;;;;;;;;;;5052820;28;20439;-78
2021/07/14 08:44:51;;;;;;;23.43;19.10;;;;;;;;;;5051188;28;20471;-79
2021/07/14 08:47:18;;;;;;;29.83;21.07;;;;;;;;;;5051468;28;20499;-78
2021/07/14 08:49:46;;;;;;;27.30;18.70;;;;;;;;;;5052544;28;20410;-78
2021/07/14 08:52:12;;;;;;;19.87;15.73;;;;;;;;;;5052512;28;20383;-79
2021/07/14 08:54:41;;;;;;;22.73;17.43;;;;;;;;;;5034928;28;20514;-80
2021/07/14 08:57:07;;;;;;;22.80;15.80;;;;;;;;;;5051418;28;20423;-80
2021/07/14 08:59:33;;;;;;;20.83;14.80;;;;;;;;;;5052693;28;20407;-79
2021/07/14 09:01:59;;;;;;;18.30;13.47;;;;;;;;;;5052868;28;20378;-81
2021/07/14 09:04:25;;;;;;;15.50;13.37;;;;;;;;;;5052107;28;20420;-78
2021/07/14 09:06:51;;;;;;;18.70;13.67;;;;;;;;;;5052552;28;20438;-80
2021/07/14 09:09:17;;;;;;;18.50;12.07;;;;;;;;;;5052472;28;20438;-81
2021/07/14 09:11:50;;;;;;;20.93;14.10;;;;;;;;;;5052649;28;20406;-80
2021/07/14 09:14:28;;;;;;;16.80;12.60;;;;;;;;;;5052153;28;20458;-80
2021/07/14 09:16:54;;;;;;;14.17;11.70;;;;;;;;;;5052600;28;20396;-80
2021/07/14 09:19:23;;;;;;;17.23;10.90;;;;;;;;;;5052556;28;20448;-82
2021/07/14 09:21:49;;;;;;;15.93;13.13;;;;;;;;;;5053450;28;20820;-81
2021/07/14 09:24:29;;;;;;;16.77;13.00;;;;;;;;;;5037935;28;20444;-82
2021/07/14 09:26:55;;;;;;;20.53;13.83;;;;;;;;;;5056016;28;20934;-81
2021/07/14 09:29:22;;;;;;;12.93;11.27;;;;;;;;;;5055869;28;20573;-81
2021/07/14 09:31:48;;;;;;;12.17;10.90;;;;;;;;;;5056078;28;20466;-80
2021/07/14 09:34:24;;;;;;;12.07;10.13;;;;;;;;;;5055485;28;20478;-80
2021/07/14 09:36:50;;;;;;;14.53;10.20;;;;;;;;;;5054408;28;20499;-79
2021/07/14 09:39:28;;;;;;;12.13;10.63;;;;;;;;;;5055746;28;20787;-81
2021/07/14 09:42:00;;;;;;;13.17;10.77;;;;;;;;;;5055775;28;20760;-79
2021/07/14 09:44:25;;;;;;;16.17;10.97;;;;;;;;;;5055229;28;20431;-80
2021/07/14 09:47:10;;;;;;;10.30;8.37;;;;;;;;;;5054302;28;20894;-82
2021/07/14 09:49:36;;;;;;;10.50;8.10;;;;;;;;;;5054157;28;20446;-82
2021/07/14 09:52:10;;;;;;;10.47;7.00;;;;;;;;;;5055350;28;20503;-80
2021/07/14 09:54:36;;;;;;;8.10;6.50;;;;;;;;;;5053804;28;20966;-80
2021/07/14 09:57:20;;;;;;;7.37;6.50;;;;;;;;;;5055328;28;20443;-81
2021/07/14 09:59:47;;;;;;;8.50;6.70;;;;;;;;;;5036852;28;20383;-81
2021/07/14 10:02:16;;;;;;;9.17;6.47;;;;;;;;;;5055423;28;20576;-81
2021/07/14 10:04:44;;;;;;;8.03;6.40;;;;;;;;;;5054652;28;20743;-81
2021/07/14 10:07:18;;;;;;;8.77;5.60;;;;;;;;;;5053906;28;20410;-81
2021/07/14 10:09:44;;;;;;;5.97;5.27;;;;;;;;;;5055316;28;20399;-81
2021/07/14 10:12:29;;;;;;;5.57;5.07;;;;;;;;;;5053914;28;20446;-81
2021/07/14 10:15:13;;;;;;;6.47;5.87;;;;;;;;;;5053296;28;20490;-83
2021/07/14 10:17:40;;;;;;;5.80;5.30;;;;;;;;;;5055034;28;20423;-81
2021/07/14 10:20:21;;;;;;;5.83;5.23;;;;;;;;;;5053749;28;20422;-82
2021/07/14 10:22:57;;;;;;;7.47;5.90;;;;;;;;;;5054717;28;20751;-81
2021/07/14 10:25:23;;;;;;;6.53;5.50;;;;;;;;;;5054793;28;20437;-81
2021/07/14 10:27:51;;;;;;;6.40;5.20;;;;;;;;;;5054709;28;20444;-80
2021/07/14 10:30:18;;;;;;;6.47;5.87;;;;;;;;;;5054845;28;20499;-80
2021/07/14 10:32:45;;;;;;;9.13;5.57;;;;;;;;;;5054357;28;20422;-84
2021/07/14 10:35:11;;;;;;;7.50;5.70;;;;;;;;;;5054066;28;20394;-81
2021/07/14 10:37:38;;;;;;;6.83;5.37;;;;;;;;;;5054581;28;20414;-82
2021/07/14 10:40:07;;;;;;;5.73;5.23;;;;;;;;;;5054694;28;20395;-79
2021/07/14 10:42:34;;;;;;;5.33;4.73;;;;;;;;;;5054528;28;20404;-77
2021/07/14 10:45:23;;;;;;;6.30;5.70;;;;;;;;;;5054293;28;20891;-77
2021/07/14 10:47:50;;;;;;;8.67;6.23;;;;;;;;;;5055665;28;20462;-78
2021/07/14 10:50:18;;;;;;;6.87;6.17;;;;;;;;;;5057614;28;20751;-80
2021/07/14 10:52:46;;;;;;;7.90;6.20;;;;;;;;;;5054881;28;20464;-77
2021/07/14 10:55:13;;;;;;;6.80;6.20;;;;;;;;;;5054290;28;20424;-80
2021/07/14 10:57:40;;;;;;;7.90;6.53;;;;;;;;;;5054213;28;20753;-79
2021/07/14 11:00:07;;;;;;;9.70;7.30;;;;;;;;;;5054157;28;20412;-79
2021/07/14 11:03:03;;;;;;;7.23;6.53;;;;;;;;;;5054096;28;20779;-79
2021/07/14 11:05:33;;;;;;;8.83;6.97;;;;;;;;;;5041104;28;20487;-79
2021/07/14 11:07:59;;;;;;;8.30;7.47;;;;;;;;;;5052741;28;20831;-79
2021/07/14 11:10:27;;;;;;;8.97;7.40;;;;;;;;;;5052829;28;20391;-79
2021/07/14 11:12:54;;;;;;;10.57;7.17;;;;;;;;;;5053985;28;20412;-79
2021/07/14 11:15:36;;;;;;;8.67;7.77;;;;;;;;;;5052464;28;20816;-80
2021/07/14 11:18:22;;;;;;;13.30;7.83;;;;;;;;;;5053867;28;20447;-79
2021/07/14 11:20:48;;;;;;;7.30;6.60;;;;;;;;;;5053923;28;20390;-81
2021/07/14 11:23:19;;;;;;;12.03;7.33;;;;;;;;;;5052193;28;20423;-81
2021/07/14 11:28:13;;;;;;;9.73;7.30;;;;;;;;;;5072141;28;20483;-80
2021/07/14 11:30:51;;;;;;;9.87;7.40;;;;;;;;;;5073723;28;20435;-80
2021/07/14 11:33:24;;;;;;;13.30;8.53;;;;;;;;;;5073391;28;20410;-82
2021/07/14 11:35:52;;;;;;;10.43;8.60;;;;;;;;;;5072384;28;20488;-81
2021/07/14 11:38:19;;;;;;;11.13;10.03;;;;;;;;;;5073499;28;20468;-82
2021/07/14 11:40:48;;;;;;;11.87;10.23;;;;;;;;;;5072161;28;20422;-80
2021/07/14 11:43:15;;;;;;;18.53;11.83;;;;;;;;;;5072083;28;20949;-80
2021/07/14 11:45:42;;;;;;;15.13;11.13;;;;;;;;;;5071116;28;20493;-81
2021/07/14 11:48:10;;;;;;;21.30;12.47;;;;;;;;;;5073341;28;20591;-80
2021/07/14 11:50:45;;;;;;;18.77;12.83;;;;;;;;;;5072023;28;20424;-80
2021/07/14 11:53:26;;;;;;;23.80;14.53;;;;;;;;;;5073040;28;20410;-82
2021/07/14 11:55:59;;;;;;;21.70;14.60;;;;;;;;;;5072055;28;20414;-79
2021/07/14 11:58:44;;;;;;;17.13;13.03;;;;;;;;;;5072011;28;20451;-79
2021/07/14 12:01:11;;;;;;;17.67;14.10;;;;;;;;;;5072474;28;20450;-79
2021/07/14 12:03:37;;;;;;;18.70;13.43;;;;;;;;;;5072753;28;20828;-79
2021/07/14 12:06:22;;;;;;;20.03;13.37;;;;;;;;;;5071716;28;20462;-80
2021/07/14 12:08:49;;;;;;;21.20;14.70;;;;;;;;;;5073147;28;20466;-79
2021/07/14 12:11:19;;;;;;;21.87;15.80;;;;;;;;;;5073183;28;20494;-79
2021/07/14 12:13:48;;;;;;;17.83;13.63;;;;;;;;;;5071420;28;20414;-79
2021/07/14 12:16:24;;;;;;;22.60;15.40;;;;;;;;;;5071858;28;20414;-79
2021/07/14 12:18:57;;;;;;;18.53;14.17;;;;;;;;;;5071819;28;20407;-80
2021/07/14 12:21:37;;;;;;;19.93;14.10;;;;;;;;;;5073386;28;20871;-79
2021/07/14 12:24:03;;;;;;;16.07;11.40;;;;;;;;;;5072625;28;20775;-78
2021/07/14 12:26:29;;;;;;;15.33;12.20;;;;;;;;;;5071716;28;20423;-78
2021/07/14 12:28:56;;;;;;;22.27;15.83;;;;;;;;;;5073140;28;20455;-78
2021/07/14 12:31:22;;;;;;;25.27;16.53;;;;;;;;;;5072891;28;20765;-79
2021/07/14 12:33:55;;;;;;;24.33;14.67;;;;;;;;;;5072732;28;20399;-78
2021/07/14 12:36:21;;;;;;;20.60;12.87;;;;;;;;;;5072823;28;20918;-80
2021/07/14 12:38:57;;;;;;;23.93;13.70;;;;;;;;;;5073098;28;20385;-78
2021/07/14 12:41:26;;;;;;;22.27;14.87;;;;;;;;;;5072876;28;20451;-78
2021/07/14 12:44:07;;;;;;;20.70;12.33;;;;;;;;;;5071132;28;20419;-78
2021/07/14 12:46:33;;;;;;;22.53;14.50;;;;;;;;;;5071880;28;20477;-79
2021/07/14 12:49:12;;;;;;;25.30;14.40;;;;;;;;;;5072631;28;20466;-78
2021/07/14 12:51:38;;;;;;;21.33;14.27;;;;;;;;;;5072553;28;20411;-77
2021/07/14 12:54:04;;;;;;;31.00;15.20;;;;;;;;;;5072169;28;20411;-78
2021/07/14 12:56:30;;;;;;;26.53;15.43;;;;;;;;;;5071880;28;20433;-77
2021/07/14 12:59:14;;;;;;;25.10;16.30;;;;;;;;;;5076542;28;20394;-77
2021/07/14 13:01:45;;;;;;;23.20;16.40;;;;;;;;;;5076359;28;20403;-79
2021/07/14 13:04:14;;;;;;;32.47;18.60;;;;;;;;;;5076097;28;20835;-80
2021/07/14 13:06:43;;;;;;;29.73;18.50;;;;;;;;;;5076235;28;20411;-80
2021/07/14 13:09:10;;;;;;;31.77;19.10;;;;;;;;;;5058768;28;20473;-79
2021/07/14 13:11:36;;;;;;;31.40;19.30;;;;;;;;;;5075216;28;20390;-80
2021/07/14 13:14:03;;;;;;;30.83;19.10;;;;;;;;;;5075784;28;20398;-80
2021/07/14 13:16:29;;;;;;;33.17;20.17;;;;;;;;;;5076248;28;20438;-80
2021/07/14 13:18:59;;;;;;;38.47;24.57;;;;;;;;;;5076202;28;20415;-80
2021/07/14 13:21:26;;;;;;;41.60;26.03;;;;;;;;;;5076257;28;20874;-81
2021/07/14 13:24:07;;;;;;;40.13;23.70;;;;;;;;;;5075985;28;20391;-80
2021/07/14 13:26:33;;;;;;;36.67;19.20;;;;;;;;;;5076145;28;20413;-80
2021/07/14 13:28:59;;;;;;;42.87;26.07;;;;;;;;;;5075801;28;20970;-79
2021/07/14 13:31:26;;;;;;;44.87;27.10;;;;;;;;;;5075924;28;20442;-79
2021/07/14 13:33:59;;;;;;;50.13;28.07;;;;;;;;;;5075555;28;20418;-79
2021/07/14 13:36:51;;;;;;;54.93;30.57;;;;;;;;;;5075823;28;20410;-79
2021/07/14 13:39:18;;;;;;;66.27;33.27;;;;;;;;;;5066998;28;20546;-78
2021/07/14 13:41:44;;;;;;;66.80;31.93;;;;;;;;;;5075678;28;20908;-80
2021/07/14 13:44:29;;;;;;;55.13;32.10;;;;;;;;;;5075174;28;20434;-80
2021/07/14 13:46:57;;;;;;;64.13;33.10;;;;;;;;;;5075851;28;20419;-80
2021/07/14 13:49:26;;;;;;;60.23;34.47;;;;;;;;;;5074161;28;20834;-79
2021/07/14 13:51:55;;;;;;;67.23;34.63;;;;;;;;;;5075452;28;20393;-79
2021/07/14 13:54:21;;;;;;;82.17;40.03;;;;;;;;;;5075037;28;20454;-79
2021/07/14 13:56:51;;;;;;;71.73;37.50;;;;;;;;;;5075304;28;20399;-80
2021/07/14 13:59:21;;;;;;;79.53;40.17;;;;;;;;;;5075273;28;20423;-80
2021/07/14 14:01:58;;;;;;;70.83;34.90;;;;;;;;;;5075355;28;20503;-80
2021/07/14 14:04:25;;;;;;;82.13;38.67;;;;;;;;;;5074722;28;20509;-78
2021/07/14 14:06:51;;;;;;;82.63;40.43;;;;;;;;;;5073904;28;20419;-79
2021/07/14 14:09:21;;;;;;;84.53;41.27;;;;;;;;;;5074038;28;20455;-79
2021/07/14 14:11:47;;;;;;;76.57;42.47;;;;;;;;;;5075049;28;20934;-79
2021/07/14 14:14:14;;;;;;;80.67;39.30;;;;;;;;;;5074756;28;20458;-78
2021/07/14 14:16:40;;;;;;;85.90;42.30;;;;;;;;;;5073577;28;20772;-78
2021/07/14 14:19:10;;;;;;;82.23;41.50;;;;;;;;;;5074927;28;20914;-79
2021/07/14 14:21:37;;;;;;;89.67;45.67;;;;;;;;;;5073931;28;20422;-79
2021/07/14 14:24:07;;;;;;;82.40;35.27;;;;;;;;;;5074624;28;20427;-79
2021/07/14 14:26:33;;;;;;;94.30;43.73;;;;;;;;;;5074691;28;20431;-78
2021/07/14 14:28:59;;;;;;;89.10;44.30;;;;;;;;;;5074552;28;20470;-79
2021/07/14 14:31:57;;;;;;;;;;;;;;;;;;;;;
2021/07/14 14:34:24;;;;;;;86.67;41.60;;;;;;;;;;5074430;28;20798;-78
2021/07/14 14:36:50;;;;;;;82.27;40.17;;;;;;;;;;5073318;28;20497;-79
2021/07/14 14:39:16;;;;;;;75.07;37.83;;;;;;;;;;5073453;28;20443;-79
2021/07/14 14:41:42;;;;;;;79.87;39.67;;;;;;;;;;5074489;28;20454;-78
2021/07/14 14:44:08;;;;;;;76.17;36.03;;;;;;;;;;5074260;28;20476;-78
2021/07/14 14:46:35;;;;;;;83.53;38.03;;;;;;;;;;5073174;28;20439;-78
2021/07/14 14:49:01;;;;;;;82.27;42.70;;;;;;;;;;5072903;28;20516;-78